Time;durP1;ratioP1;P1;durP2;ratioP2;P2;SDS_P1;SDS_P2;PMS_P1;PMS_P2;Temp;Humidity;BMP_temperature;BMP_pressure;BME280_temperature;BME280_humidity;BME280_pressure;Samples;Min_cycle;Max_cycle;Signal;HPM_P1;HPM_P2
2022/05/25 00:02:02;;;;;;;9.15;6.60;;;10.10;99.90;;;;;;4982393;28;20081;-73
2022/05/25 00:04:28;;;;;;;6.53;5.82;;;10.10;99.90;;;;;;4982448;28;20073;-74
2022/05/25 00:06:54;;;;;;;8.45;6.93;;;10.00;99.90;;;;;;4982079;28;20058;-74
2022/05/25 00:09:20;;;;;;;8.20;7.30;;;10.00;99.90;;;;;;4981270;28;20050;-74
2022/05/25 00:11:47;;;;;;;9.07;6.78;;;10.00;99.90;;;;;;4981744;28;20800;-74
2022/05/25 00:14:13;;;;;;;9.82;8.27;;;10.00;99.90;;;;;;4985726;28;20050;-74
2022/05/25 00:16:39;;;;;;;7.95;7.05;;;10.00;99.90;;;;;;4967452;28;20137;-74
2022/05/25 00:21:49;;;;;;;10.32;7.22;;;10.00;99.90;;;;;;4974504;28;20050;-74
2022/05/25 00:24:14;;;;;;;9.60;8.10;;;10.00;99.90;;;;;;4973447;28;20049;-73
2022/05/25 00:26:40;;;;;;;9.85;7.43;;;10.00;99.90;;;;;;4984566;28;20480;-74
2022/05/25 00:29:06;;;;;;;8.13;7.13;;;10.00;99.90;;;;;;4984363;28;20042;-74
2022/05/25 00:31:32;;;;;;;8.23;7.20;;;10.00;99.90;;;;;;4982885;28;20125;-73
2022/05/25 00:33:58;;;;;;;10.90;7.40;;;10.00;99.90;;;;;;4984400;28;20046;-74
2022/05/25 00:36:24;;;;;;;9.82;8.82;;;10.00;99.90;;;;;;4980233;28;20050;-74
2022/05/25 00:38:50;;;;;;;8.70;7.55;;;9.90;99.90;;;;;;4983210;28;20041;-74
2022/05/25 00:41:16;;;;;;;8.73;7.75;;;9.90;99.90;;;;;;4982689;28;20414;-73
2022/05/25 00:43:42;;;;;;;14.55;8.88;;;9.80;99.90;;;;;;4976592;28;20034;-73
2022/05/25 00:46:15;;;;;;;10.75;8.30;;;9.80;99.90;;;;;;4984703;28;20053;-73
2022/05/25 00:48:47;;;;;;;10.68;8.45;;;9.80;99.90;;;;;;4984715;28;20042;-74
2022/05/25 00:51:21;;;;;;;13.57;9.45;;;9.70;99.90;;;;;;4983090;28;20085;-73
2022/05/25 00:54:00;;;;;;;13.90;8.85;;;9.80;99.90;;;;;;4984075;28;20058;-74
2022/05/25 00:56:27;;;;;;;11.18;9.13;;;9.80;99.90;;;;;;4980604;28;20096;-72
2022/05/25 00:58:59;;;;;;;13.55;10.02;;;9.70;99.90;;;;;;4982990;28;20034;-73
2022/05/25 01:01:26;;;;;;;11.85;10.63;;;9.60;99.90;;;;;;4982362;28;20097;-74
2022/05/25 01:03:52;;;;;;;9.85;8.85;;;9.60;99.90;;;;;;4983855;28;20046;-73
2022/05/25 01:06:38;;;;;;;10.65;9.43;;;9.60;99.90;;;;;;4983465;28;20441;-73
2022/05/25 01:09:33;;;;;;;16.48;9.77;;;9.70;99.90;;;;;;4981811;28;20043;-74
2022/05/25 01:12:29;;;;;;;12.13;9.65;;;9.70;99.90;;;;;;4980248;28;20054;-73
2022/05/25 01:15:05;;;;;;;11.70;10.55;;;9.70;99.90;;;;;;4981741;28;20042;-74
2022/05/25 01:17:57;;;;;;;13.60;9.98;;;9.60;99.90;;;;;;4984931;28;20048;-74
2022/05/25 01:20:36;;;;;;;10.05;9.00;;;9.60;99.90;;;;;;4976819;28;20057;-74
2022/05/25 01:23:27;;;;;;;13.47;10.47;;;9.60;99.90;;;;;;4984505;28;20458;-74
2022/05/25 01:26:16;;;;;;;;;;;9.50;99.90;;;;;;4982056;28;20352;-74
2022/05/25 01:29:04;;;;;;;13.95;10.25;;;9.60;99.90;;;;;;4980976;28;19921;-73
2022/05/25 01:31:45;;;;;;;15.65;10.07;;;9.60;99.90;;;;;;4980660;28;20201;-74
2022/05/25 01:34:33;;;;;;;11.80;10.23;;;9.50;99.90;;;;;;4975386;28;20050;-74
2022/05/25 01:37:15;;;;;;;13.10;11.68;;;9.50;99.90;;;;;;4982399;28;20635;-73
2022/05/25 01:39:47;;;;;;;14.07;10.98;;;9.50;99.90;;;;;;4981412;28;20085;-74
2022/05/25 01:45:07;;;;;;;12.90;9.88;;;9.70;99.90;;;;;;5004242;23;20057;-75
2022/05/25 01:47:34;;;;;;;;;;;9.60;99.90;;;;;;5002875;28;20048;-75
2022/05/25 01:50:10;;;;;;;12.02;10.85;;;9.60;99.90;;;;;;5001999;28;19928;-75
2022/05/25 01:52:41;;;;;;;14.20;12.25;;;9.40;99.90;;;;;;5003691;28;20042;-74
2022/05/25 01:55:11;;;;;;;14.75;11.90;;;9.50;99.90;;;;;;5003058;28;20050;-74
2022/05/25 01:57:42;;;;;;;13.50;11.40;;;9.50;99.90;;;;;;4997781;28;20080;-74
2022/05/25 02:00:09;;;;;;;16.08;11.23;;;9.60;99.90;;;;;;5001169;28;20046;-75
2022/05/25 02:05:21;;;;;;;18.05;11.65;;;9.50;99.90;;;;;;4987269;28;20057;-75
2022/05/25 02:07:55;;;;;;;16.08;12.05;;;9.50;99.90;;;;;;5002330;28;20121;-75
2022/05/25 02:10:21;;;;;;;14.25;12.18;;;9.50;99.90;;;;;;4988368;28;20045;-75
2022/05/25 02:12:59;;;;;;;19.13;13.05;;;9.50;99.90;;;;;;5005205;28;20046;-75
2022/05/25 02:15:59;;;;;;;15.85;12.63;;;9.50;99.90;;;;;;5005248;28;20038;-73
2022/05/25 02:18:51;;;;;;;16.55;13.32;;;9.40;99.90;;;;;;4986856;28;20093;-72
2022/05/25 02:21:52;;;;;;;17.00;12.25;;;9.40;99.90;;;;;;5004752;28;20057;-76
2022/05/25 02:24:40;;;;;;;16.73;12.52;;;9.40;99.90;;;;;;4999451;28;20054;-75
2022/05/25 02:27:32;;;;;;;14.27;11.73;;;9.40;99.90;;;;;;5003816;28;20050;-75
2022/05/25 02:30:03;;;;;;;15.57;12.73;;;9.40;99.90;;;;;;4998059;28;20104;-72
2022/05/25 02:32:35;;;;;;;18.73;14.05;;;9.30;99.90;;;;;;5007597;28;20048;-75
2022/05/25 02:35:02;;;;;;;17.88;13.43;;;9.30;99.90;;;;;;5007294;28;20404;-75
2022/05/25 02:37:30;;;;;;;14.68;13.15;;;9.30;99.90;;;;;;5007235;28;20059;-75
2022/05/25 02:39:59;;;;;;;22.20;14.05;;;9.30;99.90;;;;;;5001715;28;20456;-75
2022/05/25 02:42:24;;;;;;;19.08;14.90;;;9.40;99.90;;;;;;5004869;28;20497;-74
2022/05/25 02:44:51;;;;;;;16.90;13.75;;;9.40;99.90;;;;;;5005403;28;20061;-74
2022/05/25 02:47:16;;;;;;;15.38;13.02;;;9.30;99.90;;;;;;5006939;28;20045;-75
2022/05/25 02:49:42;;;;;;;17.02;14.02;;;9.30;99.90;;;;;;5005789;28;20041;-74
2022/05/25 02:52:09;;;;;;;17.25;14.52;;;9.40;99.90;;;;;;4996144;28;20050;-75
2022/05/25 02:54:36;;;;;;;21.42;15.98;;;9.30;99.90;;;;;;5005440;28;20049;-74
2022/05/25 02:57:02;;;;;;;19.10;16.67;;;9.30;99.90;;;;;;5003575;28;20492;-74
2022/05/25 02:59:28;;;;;;;19.20;15.48;;;9.30;99.90;;;;;;5003314;28;20079;-74
2022/05/25 03:01:53;;;;;;;20.55;16.40;;;9.40;99.90;;;;;;5005688;28;20124;-74
2022/05/25 03:04:19;;;;;;;20.33;16.15;;;9.30;99.90;;;;;;5004392;28;20033;-74
2022/05/25 03:06:45;;;;;;;25.42;15.73;;;9.30;99.90;;;;;;5006989;28;20798;-73
2022/05/25 03:09:11;;;;;;;20.77;17.02;;;9.30;99.90;;;;;;5005468;28;20046;-73
2022/05/25 03:11:36;;;;;;;23.60;16.85;;;9.30;99.90;;;;;;5000948;28;20049;-72
2022/05/25 03:14:02;;;;;;;30.70;18.17;;;9.30;99.90;;;;;;4999665;28;20046;-72
2022/05/25 03:16:29;;;;;;;21.83;17.90;;;9.30;99.90;;;;;;5004153;28;20385;-73
2022/05/25 03:18:57;;;;;;;20.08;16.15;;;9.30;99.90;;;;;;5007803;28;20045;-74
2022/05/25 03:21:22;;;;;;;23.38;18.38;;;9.30;99.90;;;;;;5005403;28;20119;-74
2022/05/25 03:23:48;;;;;;;22.10;17.75;;;9.30;99.90;;;;;;5004827;28;20496;-74
2022/05/25 03:26:15;;;;;;;24.33;16.95;;;9.40;99.90;;;;;;4997095;28;20404;-74
2022/05/25 03:28:41;;;;;;;26.27;19.23;;;9.40;99.90;;;;;;5004242;28;20041;-74
2022/05/25 03:31:06;;;;;;;22.55;16.88;;;9.40;99.90;;;;;;5004232;28;20076;-74
2022/05/25 03:33:33;;;;;;;20.77;17.42;;;9.40;99.90;;;;;;5004784;28;20038;-74
2022/05/25 03:35:58;;;;;;;26.70;19.35;;;9.40;99.90;;;;;;5004242;28;20527;-73
2022/05/25 03:38:26;;;;;;;22.35;19.83;;;9.40;99.90;;;;;;5005564;28;20145;-74
2022/05/25 03:40:53;;;;;;;27.45;18.17;;;9.50;99.90;;;;;;5003800;28;20041;-74
2022/05/25 03:43:19;;;;;;;25.67;20.42;;;9.30;99.90;;;;;;5002514;28;20058;-74
2022/05/25 03:45:46;;;;;;;29.55;20.70;;;9.40;99.90;;;;;;4999562;28;20431;-74
2022/05/25 03:48:12;;;;;;;29.77;19.25;;;9.40;99.90;;;;;;5003837;28;20510;-74
2022/05/25 03:50:40;;;;;;;22.73;19.10;;;9.40;99.90;;;;;;5006442;28;20037;-73
2022/05/25 03:53:07;;;;;;;24.15;18.92;;;9.40;99.90;;;;;;5003472;28;20068;-75
2022/05/25 03:55:34;;;;;;;27.63;20.60;;;9.40;99.90;;;;;;5005046;28;20753;-73
2022/05/25 03:58:00;;;;;;;26.05;19.98;;;9.40;99.90;;;;;;5001718;28;20057;-73
2022/05/25 04:00:26;;;;;;;27.45;19.55;;;9.40;99.90;;;;;;5002411;28;20042;-73
2022/05/25 04:02:51;;;;;;;29.38;20.52;;;9.50;99.90;;;;;;5002592;28;20436;-73
2022/05/25 04:05:18;;;;;;;27.05;20.92;;;9.50;99.90;;;;;;5006808;28;20041;-74
2022/05/25 04:07:46;;;;;;;25.95;18.38;;;9.40;99.90;;;;;;4998745;28;20100;-74
2022/05/25 04:10:15;;;;;;;24.95;19.42;;;9.50;99.90;;;;;;4998729;28;20038;-74
2022/05/25 04:12:43;;;;;;;23.30;20.50;;;9.60;99.90;;;;;;5000176;28;20067;-75
2022/05/25 04:15:11;;;;;;;23.15;18.63;;;9.70;99.90;;;;;;5006265;28;20080;-74
2022/05/25 04:17:37;;;;;;;24.42;18.00;;;9.90;99.90;;;;;;4996608;28;20145;-74
2022/05/25 04:20:05;;;;;;;25.00;19.20;;;10.90;99.90;;;;;;5005316;28;20599;-75
2022/05/25 04:22:32;;;;;;;26.05;17.80;;;10.70;99.90;;;;;;5002324;28;20257;-74
2022/05/25 04:25:01;;;;;;;19.17;16.83;;;10.60;99.90;;;;;;4983646;28;20041;-73
2022/05/25 04:27:28;;;;;;;20.70;17.15;;;10.50;99.90;;;;;;4998053;28;20049;-74
2022/05/25 04:29:53;;;;;;;19.13;15.38;;;10.60;99.90;;;;;;5005907;28;20484;-74
2022/05/25 04:32:19;;;;;;;18.75;15.25;;;10.40;99.90;;;;;;5003226;28;20073;-74
2022/05/25 04:34:45;;;;;;;19.10;13.73;;;10.30;99.90;;;;;;5002810;28;20109;-74
2022/05/25 04:39:55;;;;;;;22.42;17.92;;;10.50;99.90;;;;;;5002765;28;20045;-73
2022/05/25 04:42:20;;;;;;;20.50;16.00;;;10.50;99.90;;;;;;5000514;28;20096;-74
2022/05/25 04:44:46;;;;;;;24.60;17.70;;;10.40;99.90;;;;;;5002084;28;20096;-74
2022/05/25 04:47:13;;;;;;;16.88;15.18;;;10.50;99.90;;;;;;5004737;28;20052;-73
2022/05/25 04:49:43;;;;;;;17.70;14.88;;;10.50;99.90;;;;;;5004284;28;20034;-74
2022/05/25 04:52:09;;;;;;;19.15;14.85;;;10.60;99.90;;;;;;5002024;28;20049;-73
2022/05/25 04:54:34;;;;;;;19.15;15.07;;;10.60;99.90;;;;;;5003017;28;20408;-73
2022/05/25 04:59:44;;;;;;;17.17;13.50;;;10.60;99.90;;;;;;4989670;28;20069;-73
2022/05/25 05:02:10;;;;;;;19.13;14.93;;;10.80;99.90;;;;;;5003436;28;20504;-73
2022/05/25 05:04:37;;;;;;;17.45;13.50;;;10.80;99.90;;;;;;5004258;28;20040;-72
2022/05/25 05:07:04;;;;;;;18.90;16.10;;;10.80;99.90;;;;;;5000840;28;20038;-74
2022/05/25 05:09:34;;;;;;;18.13;14.68;;;10.90;99.90;;;;;;5001904;28;20125;-74
2022/05/25 05:12:00;;;;;;;18.88;13.27;;;10.80;99.90;;;;;;5002199;28;20042;-73
2022/05/25 05:14:25;;;;;;;20.70;13.38;;;10.90;99.90;;;;;;4985768;28;20053;-73
2022/05/25 05:16:58;;;;;;;20.02;14.20;;;10.90;99.90;;;;;;5001488;28;20453;-74
2022/05/25 05:19:24;;;;;;;14.80;13.20;;;11.00;99.90;;;;;;5000576;28;20447;-73
2022/05/25 05:21:54;;;;;;;19.63;13.95;;;11.10;99.90;;;;;;5003891;28;20053;-73
2022/05/25 05:24:22;;;;;;;16.38;13.85;;;11.20;99.90;;;;;;5003220;28;20049;-74
2022/05/25 05:26:47;;;;;;;15.35;13.38;;;11.30;99.90;;;;;;5001133;28;20415;-73
2022/05/25 05:29:13;;;;;;;16.45;13.57;;;11.30;99.90;;;;;;5004618;28;20095;-72
2022/05/25 05:31:39;;;;;;;16.90;15.10;;;11.30;99.90;;;;;;5002794;28;20073;-74
2022/05/25 05:34:05;;;;;;;21.00;13.45;;;11.30;99.90;;;;;;5001197;28;20081;-74
2022/05/25 05:36:36;;;;;;;18.90;14.00;;;11.40;99.90;;;;;;5002944;28;20411;-74
2022/05/25 05:39:05;;;;;;;15.35;12.63;;;11.40;99.90;;;;;;4999301;28;20034;-74
2022/05/25 05:41:56;;;;;;;14.75;13.05;;;11.50;99.90;;;;;;5000084;28;20056;-74
2022/05/25 05:44:27;;;;;;;18.80;13.07;;;11.60;99.90;;;;;;4972177;28;20447;-74
2022/05/25 05:46:57;;;;;;;16.20;11.65;;;11.70;99.90;;;;;;5003111;28;20412;-74
2022/05/25 05:49:23;;;;;;;18.52;13.57;;;11.70;99.90;;;;;;4995320;28;20053;-74
2022/05/25 05:51:48;;;;;;;18.85;13.20;;;11.80;99.90;;;;;;5005517;28;20046;-74
2022/05/25 05:54:15;;;;;;;13.68;11.95;;;11.90;99.90;;;;;;5002061;28;20408;-73
2022/05/25 05:56:41;;;;;;;15.60;12.60;;;11.90;99.90;;;;;;5000615;28;20042;-75
2022/05/25 05:59:06;;;;;;;11.63;10.52;;;11.90;99.90;;;;;;5001580;28;20049;-74
2022/05/25 06:01:32;;;;;;;14.55;12.30;;;12.00;99.90;;;;;;5001846;28;20042;-74
2022/05/25 06:03:58;;;;;;;14.55;11.50;;;12.00;99.90;;;;;;5004039;28;20046;-74
2022/05/25 06:06:23;;;;;;;13.23;11.55;;;12.10;99.90;;;;;;4992466;28;20049;-74
2022/05/25 06:08:49;;;;;;;12.68;11.02;;;12.10;99.90;;;;;;4999127;28;20038;-74
2022/05/25 06:11:19;;;;;;;12.63;11.25;;;12.20;99.90;;;;;;4993076;28;20432;-73
2022/05/25 06:13:46;;;;;;;11.95;10.70;;;12.10;99.90;;;;;;4985424;28;20060;-73
2022/05/25 06:21:41;;;;;;;14.88;9.55;;;12.50;99.90;;;;;;4996142;28;20404;-74
2022/05/25 06:24:06;;;;;;;16.02;9.90;;;12.60;99.90;;;;;;5003415;28;20045;-74
2022/05/25 06:26:32;;;;;;;19.13;11.23;;;12.60;99.90;;;;;;5000817;28;20045;-74
2022/05/25 06:28:59;;;;;;;12.15;10.68;;;12.70;99.90;;;;;;5001639;28;20053;-74
2022/05/25 06:31:25;;;;;;;15.02;10.68;;;12.80;99.90;;;;;;5000692;28;20113;-73
2022/05/25 06:33:51;;;;;;;13.68;10.32;;;12.90;99.90;;;;;;4996507;28;20046;-73
2022/05/25 06:36:25;;;;;;;16.77;10.57;;;12.90;99.90;;;;;;5004888;28;20045;-74
2022/05/25 06:38:52;;;;;;;18.15;11.50;;;13.00;99.90;;;;;;4984958;28;20425;-74
2022/05/25 06:41:18;;;;;;;15.75;10.60;;;13.10;99.90;;;;;;5001801;28;20042;-74
2022/05/25 06:43:44;;;;;;;13.55;9.98;;;13.10;99.90;;;;;;4999501;28;20061;-74
2022/05/25 06:46:12;;;;;;;13.13;9.63;;;13.20;99.90;;;;;;4999809;28;20121;-74
2022/05/25 06:48:38;;;;;;;12.68;8.52;;;13.30;99.90;;;;;;5003153;28;20049;-74
2022/05/25 06:51:16;;;;;;;10.13;9.20;;;13.40;99.90;;;;;;5000207;28;20038;-74
2022/05/25 06:53:42;;;;;;;16.25;8.50;;;13.70;99.90;;;;;;5002398;28;20052;-74
2022/05/25 06:56:08;;;;;;;14.32;9.25;;;13.90;99.90;;;;;;5006583;28;20121;-74
2022/05/25 06:58:34;;;;;;;9.85;8.52;;;14.20;99.90;;;;;;5005414;28;20401;-72
2022/05/25 07:01:00;;;;;;;11.07;8.05;;;14.40;99.90;;;;;;5003351;28;20038;-72
2022/05/25 07:03:26;;;;;;;13.07;6.55;;;15.70;99.90;;;;;;5004332;28;20049;-73
2022/05/25 07:05:52;;;;;;;14.50;7.00;;;16.80;99.90;;;;;;5008299;28;20435;-74
2022/05/25 07:08:18;;;;;;;10.65;6.63;;;16.60;99.90;;;;;;4987208;28;20042;-74
2022/05/25 07:10:47;;;;;;;9.98;6.82;;;15.80;99.90;;;;;;5001018;28;20060;-74
2022/05/25 07:13:15;;;;;;;7.82;7.07;;;15.50;99.90;;;;;;5000462;28;20052;-75
2022/05/25 07:15:42;;;;;;;11.23;8.25;;;15.40;99.90;;;;;;5004596;28;20499;-77
2022/05/25 07:18:08;;;;;;;9.80;6.85;;;15.90;99.90;;;;;;5007023;28;20038;-77
2022/05/25 07:20:34;;;;;;;11.57;7.65;;;16.10;99.90;;;;;;5004337;28;20030;-78
2022/05/25 07:22:59;;;;;;;10.68;7.22;;;16.40;99.90;;;;;;5008510;28;20967;-84
2022/05/25 07:25:26;;;;;;;10.50;6.30;;;17.90;99.90;;;;;;5002943;28;20049;-82
2022/05/25 07:27:51;;;;;;;9.25;6.80;;;17.80;99.90;;;;;;5007482;28;20050;-74
2022/05/25 07:30:17;;;;;;;10.75;6.50;;;17.40;99.90;;;;;;5003911;28;20519;-75
2022/05/25 07:32:44;;;;;;;8.95;6.00;;;17.80;99.90;;;;;;5006454;28;20056;-75
2022/05/25 07:35:12;;;;;;;11.68;6.40;;;17.00;99.90;;;;;;5004507;28;20145;-74
2022/05/25 07:37:39;;;;;;;10.65;5.45;;;16.50;99.90;;;;;;5004818;28;20463;-74
2022/05/25 07:40:13;;;;;;;11.88;6.43;;;16.00;99.90;;;;;;4986387;28;20062;-75
2022/05/25 07:42:44;;;;;;;8.13;6.45;;;15.70;99.90;;;;;;4999844;28;20064;-76
2022/05/25 07:45:10;;;;;;;13.63;7.35;;;15.70;99.90;;;;;;5004074;28;20050;-76
2022/05/25 07:47:35;;;;;;;8.15;6.68;;;15.90;99.90;;;;;;5006382;28;20057;-75
2022/05/25 07:50:03;;;;;;;9.50;6.05;;;16.00;99.90;;;;;;4997695;28;20104;-74
2022/05/25 07:52:32;;;;;;;8.98;6.28;;;16.20;99.90;;;;;;5001041;28;20058;-74
2022/05/25 07:54:59;;;;;;;6.83;6.20;;;16.30;99.90;;;;;;4999828;28;20053;-74
2022/05/25 07:57:24;;;;;;;9.93;6.68;;;16.50;99.90;;;;;;5005749;28;20103;-75
2022/05/25 07:59:50;;;;;;;8.23;6.25;;;16.40;99.90;;;;;;5004782;28;20045;-75
2022/05/25 08:07:57;;;;;;;6.75;5.07;;;16.70;99.90;;;;;;5004313;28;20046;-75
2022/05/25 08:10:25;;;;;;;7.10;4.63;;;16.50;99.90;;;;;;5002610;28;20501;-74
2022/05/25 08:12:56;;;;;;;7.78;5.22;;;16.60;99.90;;;;;;5004815;28;20038;-75
2022/05/25 08:15:23;;;;;;;7.18;4.55;;;16.80;99.90;;;;;;5003737;28;20046;-75
2022/05/25 08:17:48;;;;;;;8.10;5.65;;;17.00;99.90;;;;;;5002226;28;20046;-75
2022/05/25 08:20:14;;;;;;;9.45;4.00;;;16.70;99.90;;;;;;4994288;28;20396;-74
2022/05/25 08:22:41;;;;;;;7.95;3.83;;;16.40;99.90;;;;;;5001715;28;20085;-74
2022/05/25 08:25:09;;;;;;;8.30;4.25;;;16.50;99.90;;;;;;4996836;28;20282;-76
2022/05/25 08:27:39;;;;;;;5.95;3.70;;;16.60;99.90;;;;;;5001257;28;20050;-75
2022/05/25 08:30:09;;;;;;;6.07;3.78;;;16.80;99.90;;;;;;5004075;28;20049;-75
2022/05/25 08:32:35;;;;;;;6.55;3.50;;;16.60;99.90;;;;;;5006047;28;20153;-75
2022/05/25 08:35:01;;;;;;;4.85;3.42;;;16.60;99.90;;;;;;5003917;28;20505;-76
2022/05/25 08:37:27;;;;;;;3.60;2.80;;;16.40;99.90;;;;;;5002305;28;20128;-75
2022/05/25 08:39:52;;;;;;;6.90;3.25;;;16.30;99.90;;;;;;5004889;28;20125;-74
2022/05/25 08:42:21;;;;;;;6.20;3.03;;;16.40;99.90;;;;;;5004133;28;20042;-75
2022/05/25 08:44:50;;;;;;;5.65;3.70;;;16.30;99.90;;;;;;5003005;28;20448;-76
2022/05/25 08:47:15;;;;;;;6.53;3.40;;;16.20;99.90;;;;;;5001563;28;20249;-76
2022/05/25 08:49:44;;;;;;;4.65;2.92;;;16.20;99.90;;;;;;5003726;28;20532;-75
2022/05/25 08:52:28;;;;;;;6.15;3.15;;;16.00;99.90;;;;;;5004219;28;20077;-75
2022/05/25 08:54:53;;;;;;;4.82;3.50;;;15.90;99.90;;;;;;5001749;28;20457;-73
2022/05/25 08:57:32;;;;;;;6.75;3.72;;;15.90;99.90;;;;;;5005119;28;20125;-77
2022/05/25 09:00:06;;;;;;;11.98;3.75;;;15.80;99.90;;;;;;5003510;28;20369;-76
2022/05/25 09:03:02;;;;;;;4.38;2.75;;;16.00;99.90;;;;;;5002511;28;20374;-76
2022/05/25 09:05:42;;;;;;;5.65;2.90;;;16.50;99.90;;;;;;5005437;28;20050;-77
2022/05/25 09:08:22;;;;;;;4.55;2.80;;;16.90;99.90;;;;;;5003381;28;20057;-76
2022/05/25 09:10:58;;;;;;;6.53;3.00;;;16.80;99.90;;;;;;5002927;28;20407;-76
2022/05/25 09:13:32;;;;;;;5.65;2.90;;;16.80;99.90;;;;;;5009691;28;20057;-76
2022/05/25 09:16:18;;;;;;;3.65;2.85;;;16.80;99.90;;;;;;5002977;28;20048;-74
2022/05/25 09:19:00;;;;;;;4.68;3.20;;;16.80;99.90;;;;;;4983527;28;20034;-75
2022/05/25 09:21:37;;;;;;;5.70;3.55;;;16.80;99.90;;;;;;4993317;28;20049;-76
2022/05/25 09:24:17;;;;;;;6.18;4.13;;;16.70;99.90;;;;;;5003011;28;20069;-75
2022/05/25 09:26:43;;;;;;;4.68;4.25;;;16.60;99.90;;;;;;5003441;28;20436;-74
2022/05/25 09:29:09;;;;;;;4.55;3.58;;;16.30;99.90;;;;;;5000995;28;20038;-77
2022/05/25 09:31:42;;;;;;;5.07;3.58;;;16.30;99.90;;;;;;5003520;28;20046;-74
2022/05/25 09:34:13;;;;;;;6.10;3.58;;;16.40;99.90;;;;;;5001538;28;20515;-76
2022/05/25 09:36:52;;;;;;;4.68;4.07;;;16.60;99.90;;;;;;5005105;28;20042;-76
2022/05/25 09:39:26;;;;;;;18.83;5.23;;;16.90;99.90;;;;;;5003338;28;20042;-75
2022/05/25 09:41:58;;;;;;;7.40;4.53;;;17.10;99.90;;;;;;5003970;28;20396;-74
2022/05/25 09:44:26;;;;;;;7.70;4.60;;;17.30;99.90;;;;;;5000218;28;20065;-77
2022/05/25 09:47:01;;;;;;;7.93;4.43;;;17.40;99.90;;;;;;5002741;28;20045;-76
2022/05/25 09:49:38;;;;;;;9.68;4.82;;;17.50;99.90;;;;;;5002644;28;20053;-76
2022/05/25 09:52:32;;;;;;;4.07;3.65;;;17.30;99.90;;;;;;5003139;28;20081;-76
2022/05/25 09:55:04;;;;;;;7.75;4.72;;;17.00;99.90;;;;;;4996989;28;20457;-77
2022/05/25 09:57:55;;;;;;;4.63;2.70;;;17.00;99.90;;;;;;5004412;28;20046;-76
2022/05/25 10:00:37;;;;;;;4.03;3.00;;;16.90;99.90;;;;;;5008336;28;20046;-77
2022/05/25 10:03:20;;;;;;;5.90;3.67;;;16.70;99.90;;;;;;5004579;28;20052;-77
2022/05/25 10:05:56;;;;;;;7.93;4.50;;;16.80;99.90;;;;;;5004800;28;20428;-77
2022/05/25 10:08:37;;;;;;;5.65;3.80;;;16.70;99.90;;;;;;5003755;28;20073;-76
2022/05/25 10:11:29;;;;;;;4.75;3.95;;;16.50;99.90;;;;;;4989676;28;20046;-76
2022/05/25 10:13:56;;;;;;;8.45;5.55;;;16.40;99.90;;;;;;5002691;28;20390;-81
2022/05/25 10:16:26;;;;;;;7.78;6.68;;;16.30;99.90;;;;;;5001026;28;20121;-79
2022/05/25 10:18:52;;;;;;;8.93;5.35;;;16.30;99.90;;;;;;5002295;28;20039;-81
2022/05/25 10:21:31;;;;;;;7.72;5.57;;;16.60;99.90;;;;;;5000123;28;20060;-79
2022/05/25 10:23:58;;;;;;;7.90;6.28;;;16.60;99.90;;;;;;5004036;28;20049;-79
2022/05/25 10:26:35;;;;;;;6.20;5.32;;;16.70;99.90;;;;;;5003368;28;20048;-81
2022/05/25 10:29:10;;;;;;;6.47;5.05;;;16.50;99.90;;;;;;5002105;28;20050;-77
2022/05/25 10:37:39;;;;;;;6.93;5.18;;;15.90;99.90;;;;;;5007028;28;20408;-79
2022/05/25 10:40:09;;;;;;;6.50;5.85;;;16.00;99.90;;;;;;5005919;28;20183;-78
2022/05/25 10:42:39;;;;;;;7.20;5.63;;;16.10;99.90;;;;;;5006741;28;20381;-79
2022/05/25 10:45:08;;;;;;;7.22;3.58;;;16.20;99.90;;;;;;5006684;28;20520;-80
2022/05/25 10:47:49;;;;;;;5.55;1.98;;;16.10;99.90;;;;;;5004061;28;20084;-79
2022/05/25 10:50:25;;;;;;;4.32;2.38;;;15.80;99.90;;;;;;5006919;28;20120;-80
2022/05/25 10:53:01;;;;;;;3.72;2.40;;;15.50;99.90;;;;;;5004476;28;20062;-78
2022/05/25 10:55:34;;;;;;;7.28;4.28;;;15.50;99.90;;;;;;5000279;28;20046;-78
2022/05/25 10:58:35;;;;;;;5.97;3.17;;;15.20;99.90;;;;;;5005708;28;20096;-78
2022/05/25 11:01:08;;;;;;;8.43;3.83;;;15.40;99.90;;;;;;5005185;28;20068;-78
2022/05/25 11:04:03;;;;;;;6.53;4.72;;;15.80;99.90;;;;;;5007545;28;20451;-79
2022/05/25 11:06:31;;;;;;;8.10;5.30;;;16.30;99.90;;;;;;5004386;28;20381;-81
2022/05/25 11:09:44;;;;;;;10.00;6.45;;;16.50;99.90;;;;;;5003374;28;20042;-80
2022/05/25 11:12:25;;;;;;;8.63;6.07;;;16.40;99.90;;;;;;4999980;28;20050;-80
2022/05/25 11:15:08;;;;;;;9.15;6.25;;;16.80;99.90;;;;;;5001191;28;20065;-78
2022/05/25 11:17:55;;;;;;;8.23;6.53;;;17.40;99.90;;;;;;5003416;28;20053;-78
2022/05/25 11:20:45;;;;;;;13.00;7.80;;;17.40;99.90;;;;;;5006488;28;20042;-79
2022/05/25 11:23:16;;;;;;;7.25;5.40;;;17.30;99.90;;;;;;5005956;28;20052;-80
2022/05/25 11:26:09;;;;;;;3.95;3.53;;;17.10;99.90;;;;;;5003273;28;20057;-77
2022/05/25 11:28:50;;;;;;;8.75;3.97;;;17.00;99.90;;;;;;5003250;28;20042;-78
2022/05/25 11:31:35;;;;;;;5.75;2.65;;;17.00;99.90;;;;;;4979334;28;20046;-79
2022/05/25 11:34:26;;;;;;;6.45;2.95;;;17.20;99.90;;;;;;5006003;28;20041;-77
2022/05/25 11:36:51;;;;;;;;;;;17.70;99.90;;;;;;5005871;28;21253;-79
2022/05/25 11:39:55;;;;;;;3.80;0.82;;;17.80;99.90;;;;;;4993027;28;19928;-77
2022/05/25 11:43:07;;;;;;;3.35;0.77;;;17.80;99.90;;;;;;4986934;28;20050;-78
2022/05/25 11:45:58;;;;;;;3.45;1.25;;;18.10;99.90;;;;;;4999457;28;20054;-79
2022/05/25 11:48:48;;;;;;;5.93;0.43;;;17.60;99.90;;;;;;5002563;28;20124;-80
2022/05/25 11:51:25;;;;;;;1.55;0.38;;;17.70;99.90;;;;;;5004125;28;20053;-79
2022/05/25 11:53:57;;;;;;;3.42;0.30;;;17.90;99.90;;;;;;5002618;28;20052;-79
2022/05/25 11:56:29;;;;;;;3.95;0.60;;;17.90;99.90;;;;;;5004445;28;20050;-78
2022/05/25 11:59:33;;;;;;;1.50;0.50;;;18.10;99.90;;;;;;5005490;28;20543;-81
2022/05/25 12:02:36;;;;;;;1.63;0.60;;;17.90;99.90;;;;;;5004812;28;20060;-79
2022/05/25 12:05:14;;;;;;;3.35;0.60;;;17.70;99.90;;;;;;5004513;28;20061;-79
2022/05/25 12:08:07;;;;;;;3.25;0.45;;;17.90;99.90;;;;;;4997955;28;20128;-79
2022/05/25 12:10:34;;;;;;;3.60;0.60;;;17.70;99.90;;;;;;5005024;28;20077;-79
2022/05/25 12:13:21;;;;;;;3.30;0.60;;;17.80;99.90;;;;;;5005449;28;20050;-78
2022/05/25 12:16:21;;;;;;;4.72;0.88;;;17.90;99.90;;;;;;5002182;28;20049;-76
2022/05/25 12:19:01;;;;;;;3.45;0.52;;;18.20;99.90;;;;;;5007611;28;20100;-76
2022/05/25 12:21:38;;;;;;;4.93;0.47;;;18.30;99.90;;;;;;5006638;28;20180;-80
2022/05/25 12:24:34;;;;;;;2.95;0.50;;;18.20;99.90;;;;;;5003368;28;20076;-75
2022/05/25 12:27:04;;;;;;;0.77;0.30;;;18.30;99.90;;;;;;5005503;28;20057;-79
2022/05/25 12:29:38;;;;;;;2.03;0.82;;;18.30;99.90;;;;;;5004659;28;20042;-79
2022/05/25 12:32:06;;;;;;;1.33;0.50;;;18.30;99.90;;;;;;5004090;28;20534;-78
2022/05/25 12:34:40;;;;;;;1.33;0.47;;;18.60;99.90;;;;;;5005111;28;20046;-80
2022/05/25 12:37:09;;;;;;;3.50;0.30;;;18.70;99.90;;;;;;5004262;28;20172;-79
2022/05/25 12:40:03;;;;;;;4.38;1.75;;;18.40;99.90;;;;;;5001488;28;20085;-79
2022/05/25 12:42:29;;;;;;;4.40;0.73;;;18.50;99.90;;;;;;5003870;28;20050;-79
2022/05/25 12:50:55;;;;;;;4.82;1.50;;;18.50;99.90;;;;;;5006362;28;20054;-79
2022/05/25 12:53:40;;;;;;;3.15;1.10;;;18.30;99.90;;;;;;4999778;28;20042;-79
2022/05/25 12:56:15;;;;;;;3.95;0.68;;;18.40;99.90;;;;;;5006878;28;20046;-80
2022/05/25 12:58:52;;;;;;;5.10;1.08;;;18.10;99.90;;;;;;5007021;28;20092;-80
2022/05/25 13:01:27;;;;;;;2.58;0.93;;;18.00;99.90;;;;;;5007094;28;20053;-79
2022/05/25 13:03:56;;;;;;;2.30;0.63;;;18.40;99.90;;;;;;5007244;28;20052;-79
2022/05/25 13:06:22;;;;;;;3.88;0.50;;;18.10;99.90;;;;;;5005849;28;20447;-79
2022/05/25 13:08:51;;;;;;;1.85;0.75;;;18.20;99.90;;;;;;5004358;28;20046;-78
2022/05/25 13:11:46;;;;;;;5.80;1.45;;;17.90;99.90;;;;;;4998121;28;20056;-80
2022/05/25 13:14:16;;;;;;;5.20;0.50;;;17.50;99.90;;;;;;4998156;28;20085;-79
2022/05/25 13:16:42;;;;;;;2.95;0.47;;;18.00;99.90;;;;;;4986773;28;20048;-78
2022/05/25 13:19:21;;;;;;;2.53;0.30;;;17.80;99.90;;;;;;4999055;28;20381;-76
2022/05/25 13:22:27;;;;;;;4.60;0.70;;;17.50;99.90;;;;;;5002914;28;20121;-76
2022/05/25 13:25:01;;;;;;;1.92;0.50;;;17.50;99.90;;;;;;5003584;28;20084;-78
2022/05/25 13:28:08;;;;;;;5.75;0.88;;;17.20;99.90;;;;;;5004442;28;20091;-79
2022/05/25 13:30:46;;;;;;;10.52;1.15;;;17.20;99.90;;;;;;4999214;28;20695;-80
2022/05/25 13:33:24;;;;;;;3.42;0.50;;;17.30;99.90;;;;;;5002909;28;20392;-79
2022/05/25 13:36:14;;;;;;;3.28;0.40;;;17.50;99.90;;;;;;5003561;28;20390;-80
2022/05/25 13:38:56;;;;;;;2.40;0.30;;;17.40;99.90;;;;;;4999660;28;20432;-81
2022/05/25 13:41:34;;;;;;;5.05;1.00;;;17.40;99.90;;;;;;4996054;28;20069;-80
2022/05/25 13:44:00;;;;;;;4.95;1.00;;;17.50;99.90;;;;;;5001239;28;20583;-79
2022/05/25 13:46:38;;;;;;;3.05;0.30;;;17.50;99.90;;;;;;5004210;28;20501;-79